Time;durP1;ratioP1;P1;durP2;ratioP2;P2;SDS_P1;SDS_P2;PMS_P1;PMS_P2;Temp;Humidity;BMP_temperature;BMP_pressure;BME280_temperature;BME280_humidity;BME280_pressure;Samples;Min_cycle;Max_cycle;Signal;HPM_P1;HPM_P2
2023/01/22 00:01:13;;;;;;;23.73;17.70;;;1.40;61.40;;;;;;4963438;28;20038;-83
2023/01/22 00:03:40;;;;;;;25.23;18.55;;;1.40;61.40;;;;;;4953021;28;20043;-83
2023/01/22 00:06:07;;;;;;;24.33;18.15;;;1.40;61.40;;;;;;4951972;28;20556;-81
2023/01/22 00:08:33;;;;;;;29.90;20.20;;;1.40;61.40;;;;;;4963977;28;20042;-83
2023/01/22 00:11:00;;;;;;;26.30;17.98;;;1.40;61.50;;;;;;4957385;28;20027;-81
2023/01/22 00:13:26;;;;;;;24.90;18.00;;;1.40;61.50;;;;;;4968696;28;20031;-81
2023/01/22 00:15:55;;;;;;;26.02;19.15;;;1.30;61.30;;;;;;4963512;28;20043;-82
2023/01/22 00:18:21;;;;;;;25.75;19.35;;;1.30;61.30;;;;;;4955054;28;20047;-81
2023/01/22 00:20:48;;;;;;;26.52;18.95;;;1.30;61.30;;;;;;4959467;28;20077;-81
2023/01/22 00:23:15;;;;;;;23.38;18.42;;;1.30;61.30;;;;;;4962982;28;20074;-81
2023/01/22 00:25:41;;;;;;;23.33;17.88;;;1.30;61.30;;;;;;4949301;28;20398;-82
2023/01/22 00:28:07;;;;;;;26.45;19.10;;;1.20;61.20;;;;;;4955510;28;20499;-82
2023/01/22 00:30:33;;;;;;;22.02;17.98;;;1.20;61.20;;;;;;4949069;28;20130;-82
2023/01/22 00:32:59;;;;;;;23.58;18.10;;;1.20;61.20;;;;;;4942295;28;20558;-81
2023/01/22 00:35:25;;;;;;;27.33;19.02;;;1.20;61.20;;;;;;4945684;28;20039;-82
2023/01/22 00:37:51;;;;;;;23.70;18.83;;;1.20;61.20;;;;;;4952910;28;20044;-83
2023/01/22 00:40:17;;;;;;;28.42;18.83;;;1.10;61.00;;;;;;4954172;28;20027;-83
2023/01/22 00:42:44;;;;;;;26.45;17.73;;;1.10;61.00;;;;;;4951947;28;20114;-83
2023/01/22 00:45:13;;;;;;;28.48;19.05;;;1.10;61.00;;;;;;4948862;28;20082;-81
2023/01/22 00:47:39;;;;;;;22.90;17.83;;;1.10;61.10;;;;;;4948074;28;20158;-82
2023/01/22 00:50:06;;;;;;;27.77;19.50;;;1.10;61.10;;;;;;4972947;28;20030;-81
2023/01/22 00:52:32;;;;;;;24.95;18.17;;;1.00;60.90;;;;;;4968205;28;20032;-81
2023/01/22 00:54:58;;;;;;;24.02;17.92;;;1.00;60.90;;;;;;4942918;28;20039;-81
2023/01/22 00:57:24;;;;;;;25.48;18.30;;;1.00;60.90;;;;;;4946032;28;20053;-80
2023/01/22 00:59:53;;;;;;;25.70;18.13;;;1.00;60.90;;;;;;4950713;28;20118;-82
2023/01/22 01:02:19;;;;;;;27.63;19.35;;;1.00;60.90;;;;;;4948953;28;20645;-82
2023/01/22 01:04:45;;;;;;;28.73;20.05;;;0.90;60.80;;;;;;4947985;28;20059;-82
2023/01/22 01:07:11;;;;;;;23.83;17.23;;;0.90;60.70;;;;;;4949681;28;20031;-82
2023/01/22 01:09:37;;;;;;;25.90;18.02;;;0.90;60.80;;;;;;4947532;28;20507;-82
2023/01/22 01:12:03;;;;;;;26.65;18.90;;;0.90;60.80;;;;;;4965666;28;20035;-83
2023/01/22 01:14:29;;;;;;;25.58;18.75;;;0.90;60.70;;;;;;4931991;29;20423;-81
2023/01/22 01:16:56;;;;;;;26.17;19.35;;;0.90;60.70;;;;;;4962521;28;20114;-81
2023/01/22 01:19:22;;;;;;;26.05;18.75;;;0.90;60.70;;;;;;4963679;28;20129;-80
2023/01/22 01:21:49;;;;;;;25.70;18.00;;;0.90;60.80;;;;;;4963652;28;20043;-82
2023/01/22 01:24:15;;;;;;;25.63;18.70;;;0.80;60.60;;;;;;4967082;28;20171;-81
2023/01/22 01:26:42;;;;;;;27.45;18.50;;;0.80;60.60;;;;;;4958160;28;20034;-81
2023/01/22 01:29:10;;;;;;;26.92;20.27;;;0.80;60.60;;;;;;4966674;28;20111;-82
2023/01/22 01:31:36;;;;;;;23.85;17.95;;;0.80;60.60;;;;;;4964652;28;20039;-82
2023/01/22 01:34:03;;;;;;;25.75;18.05;;;0.80;60.60;;;;;;4962763;28;20505;-81
2023/01/22 01:36:29;;;;;;;26.35;17.95;;;0.80;60.60;;;;;;4962004;28;20042;-81
2023/01/22 01:38:55;;;;;;;27.13;19.23;;;0.80;60.60;;;;;;4951205;28;20426;-80
2023/01/22 01:41:25;;;;;;;31.55;19.05;;;0.80;60.60;;;;;;4960331;28;20049;-80
2023/01/22 01:44:10;;;;;;;27.25;18.20;;;0.80;60.60;;;;;;4965726;28;20105;-82
2023/01/22 01:46:41;;;;;;;25.90;17.95;;;0.80;60.60;;;;;;4942986;28;20042;-81
2023/01/22 01:49:17;;;;;;;27.05;17.95;;;0.70;60.40;;;;;;4954071;28;20086;-82
2023/01/22 01:51:43;;;;;;;26.50;18.17;;;0.70;60.50;;;;;;4978660;28;20038;-81
2023/01/22 01:54:10;;;;;;;26.13;18.30;;;0.70;60.50;;;;;;4959277;28;20402;-81
2023/01/22 01:56:42;;;;;;;25.88;18.33;;;0.70;60.50;;;;;;4966919;28;20043;-80
2023/01/22 01:59:13;;;;;;;31.10;18.48;;;0.70;60.50;;;;;;4951738;28;20130;-82
2023/01/22 02:01:39;;;;;;;23.42;17.33;;;0.70;60.50;;;;;;4967908;28;20034;-82
2023/01/22 02:04:06;;;;;;;25.88;17.00;;;0.70;60.50;;;;;;4957100;28;20086;-82
2023/01/22 02:06:32;;;;;;;22.15;15.98;;;0.70;61.00;;;;;;4964795;28;20082;-81
2023/01/22 02:08:59;;;;;;;25.48;17.60;;;0.60;60.30;;;;;;4965826;28;20130;-82
2023/01/22 02:11:26;;;;;;;26.02;17.90;;;0.70;60.50;;;;;;4965595;28;20114;-81
2023/01/22 02:14:01;;;;;;;23.92;17.10;;;0.60;60.30;;;;;;4957625;28;20121;-79
2023/01/22 02:16:27;;;;;;;26.83;17.13;;;0.60;60.30;;;;;;4961226;28;20624;-81
2023/01/22 02:18:54;;;;;;;23.50;18.33;;;0.60;60.30;;;;;;4946483;28;20122;-81
2023/01/22 02:21:41;;;;;;;26.90;16.95;;;0.60;60.30;;;;;;4953511;28;20585;-80
2023/01/22 02:24:15;;;;;;;26.13;16.42;;;0.60;60.30;;;;;;4967183;28;20039;-80
2023/01/22 02:26:43;;;;;;;27.80;17.58;;;0.70;60.50;;;;;;4973911;28;20652;-81
2023/01/22 02:29:11;;;;;;;25.33;17.10;;;0.60;60.80;;;;;;4965087;28;20486;-79
2023/01/22 02:31:39;;;;;;;21.77;16.80;;;0.60;60.30;;;;;;4961171;28;20487;-80
2023/01/22 02:34:07;;;;;;;24.65;17.20;;;0.70;60.50;;;;;;4958591;28;20110;-81
2023/01/22 02:36:36;;;;;;;26.27;17.35;;;0.70;60.50;;;;;;4957573;28;20035;-81
2023/01/22 02:39:02;;;;;;;22.67;16.40;;;0.60;60.30;;;;;;4944852;28;20854;-81
2023/01/22 02:41:28;;;;;;;23.25;16.67;;;0.70;60.50;;;;;;4954075;28;20035;-82
2023/01/22 02:43:54;;;;;;;24.60;17.35;;;0.70;60.50;;;;;;4947872;28;20041;-81
2023/01/22 02:46:24;;;;;;;24.60;16.58;;;0.70;60.50;;;;;;4952492;28;20082;-81
2023/01/22 02:48:51;;;;;;;22.67;16.65;;;0.60;60.40;;;;;;4961062;28;20043;-80
2023/01/22 02:51:17;;;;;;;21.90;15.40;;;0.60;60.40;;;;;;4955304;28;20093;-82
2023/01/22 02:53:45;;;;;;;25.05;16.17;;;0.60;60.40;;;;;;4958948;28;20038;-83
2023/01/22 02:56:11;;;;;;;25.58;17.63;;;0.60;60.40;;;;;;4966996;28;20043;-82
2023/01/22 02:58:38;;;;;;;23.55;16.33;;;0.60;60.40;;;;;;4968928;28;20047;-81
2023/01/22 03:01:19;;;;;;;23.00;16.15;;;0.70;60.60;;;;;;4934746;28;20027;-81
2023/01/22 03:03:51;;;;;;;22.42;16.27;;;0.60;60.40;;;;;;4952956;28;20118;-80
2023/01/22 03:06:22;;;;;;;20.13;15.00;;;0.70;60.60;;;;;;4967970;28;20106;-82
2023/01/22 03:08:53;;;;;;;23.48;15.43;;;0.60;60.40;;;;;;4966517;28;20039;-81
2023/01/22 03:11:20;;;;;;;22.05;15.10;;;0.60;60.40;;;;;;4958287;28;20027;-80
2023/01/22 03:22:14;;;;;;;20.83;14.40;;;0.60;60.40;;;;;;4956265;28;20054;-81
2023/01/22 03:24:41;;;;;;;22.10;15.38;;;0.60;60.40;;;;;;4978701;28;20039;-81
2023/01/22 03:27:07;;;;;;;24.35;15.55;;;0.60;60.40;;;;;;4984957;28;20023;-81
2023/01/22 03:29:37;;;;;;;25.33;16.55;;;0.50;60.30;;;;;;4969631;28;20037;-81
2023/01/22 03:32:06;;;;;;;23.58;16.02;;;0.50;60.30;;;;;;4974410;28;20038;-82
2023/01/22 03:34:35;;;;;;;21.30;14.70;;;0.50;60.40;;;;;;4968226;28;20031;-81
2023/01/22 03:37:04;;;;;;;23.80;15.65;;;0.50;60.40;;;;;;4963094;28;20490;-81
2023/01/22 03:39:31;;;;;;;23.73;15.63;;;0.50;60.40;;;;;;4965946;28;20057;-81
2023/01/22 03:41:58;;;;;;;23.10;15.15;;;0.50;60.40;;;;;;4970777;28;20533;-83
2023/01/22 03:44:25;;;;;;;22.58;15.48;;;0.40;60.20;;;;;;4969530;28;20130;-83
2023/01/22 03:46:52;;;;;;;21.13;15.68;;;0.50;60.40;;;;;;4965561;28;20089;-82
2023/01/22 03:49:18;;;;;;;21.25;16.02;;;0.50;60.40;;;;;;4962821;28;20065;-82
2023/01/22 03:51:44;;;;;;;21.40;15.45;;;0.40;60.30;;;;;;4974380;28;20058;-82
2023/01/22 03:54:12;;;;;;;21.33;16.20;;;0.40;60.30;;;;;;4967032;28;20174;-81
2023/01/22 03:56:38;;;;;;;22.58;15.75;;;0.40;60.30;;;;;;4966431;28;20512;-81
2023/01/22 03:59:11;;;;;;;22.90;14.88;;;0.40;60.30;;;;;;4967446;28;20390;-80
2023/01/22 04:01:37;;;;;;;20.00;14.38;;;0.40;60.30;;;;;;4965602;28;20023;-81
2023/01/22 04:04:03;;;;;;;21.92;14.75;;;0.40;60.30;;;;;;4951670;28;20042;-80
2023/01/22 04:06:31;;;;;;;23.45;15.98;;;0.30;60.10;;;;;;4959130;28;20049;-80
2023/01/22 04:08:57;;;;;;;23.30;15.98;;;0.40;60.30;;;;;;4967881;28;20069;-81
2023/01/22 04:11:29;;;;;;;24.60;17.02;;;0.40;60.30;;;;;;4956041;28;20085;-80
2023/01/22 04:13:55;;;;;;;19.92;14.43;;;0.30;60.10;;;;;;4958030;28;20031;-82
2023/01/22 04:16:22;;;;;;;22.98;15.52;;;0.30;60.10;;;;;;4968019;28;20035;-78
2023/01/22 04:19:26;;;;;;;23.55;14.95;;;0.30;60.10;;;;;;4946996;28;20039;-81
2023/01/22 04:22:08;;;;;;;22.77;14.95;;;0.30;60.10;;;;;;4947019;28;20455;-81
2023/01/22 04:24:34;;;;;;;22.60;15.35;;;0.30;60.10;;;;;;4960785;28;20057;-81
2023/01/22 04:27:01;;;;;;;23.20;15.60;;;0.30;60.10;;;;;;4968582;28;20614;-81
2023/01/22 04:29:27;;;;;;;21.05;15.45;;;0.30;60.10;;;;;;4967743;28;20027;-81
2023/01/22 04:31:53;;;;;;;23.00;16.15;;;0.30;60.10;;;;;;4965846;28;20069;-81
2023/01/22 04:34:48;;;;;;;23.48;15.48;;;0.30;60.10;;;;;;4979801;28;20042;-80
2023/01/22 04:37:37;;;;;;;21.00;15.40;;;0.40;60.20;;;;;;4954460;28;20050;-79
2023/01/22 04:40:04;;;;;;;20.75;15.35;;;0.30;60.00;;;;;;4953997;28;20316;-79
2023/01/22 04:42:32;;;;;;;20.98;15.05;;;0.40;60.20;;;;;;4966857;28;20482;-81
2023/01/22 04:44:59;;;;;;;20.58;15.63;;;0.30;60.00;;;;;;4965969;28;20038;-80
2023/01/22 04:47:25;;;;;;;22.13;15.70;;;0.30;60.00;;;;;;4961981;28;20047;-81
2023/01/22 04:49:51;;;;;;;21.58;16.00;;;0.40;60.20;;;;;;4962011;28;20039;-82
2023/01/22 04:52:17;;;;;;;23.60;15.90;;;0.30;60.50;;;;;;4962001;28;20468;-82
2023/01/22 04:54:43;;;;;;;24.17;15.10;;;0.40;60.20;;;;;;4956020;28;20257;-80
2023/01/22 04:57:10;;;;;;;21.10;14.75;;;0.30;60.00;;;;;;4967199;28;20617;-81
2023/01/22 04:59:37;;;;;;;25.27;15.32;;;0.40;60.20;;;;;;4967562;28;20046;-82
2023/01/22 05:02:03;;;;;;;20.88;15.07;;;0.40;60.20;;;;;;4953153;28;20058;-81
2023/01/22 05:04:30;;;;;;;21.25;14.77;;;0.40;60.20;;;;;;4955911;28;20049;-81
2023/01/22 05:06:56;;;;;;;20.02;14.88;;;0.40;60.10;;;;;;4966978;28;20031;-81
2023/01/22 05:09:23;;;;;;;22.38;15.48;;;0.40;60.10;;;;;;4948624;28;20031;-81
2023/01/22 05:11:56;;;;;;;23.33;15.80;;;0.40;60.10;;;;;;4976173;28;20673;-82
2023/01/22 05:14:23;;;;;;;20.15;15.48;;;0.50;60.30;;;;;;4960687;28;20058;-82
2023/01/22 05:16:49;;;;;;;21.73;15.13;;;0.50;60.30;;;;;;4970849;28;20069;-83
2023/01/22 05:19:15;;;;;;;22.27;15.02;;;0.50;60.30;;;;;;4959524;28;20442;-82
2023/01/22 05:21:41;;;;;;;22.48;15.27;;;0.50;60.30;;;;;;4967441;28;20656;-82
2023/01/22 05:24:08;;;;;;;20.42;14.98;;;0.50;60.20;;;;;;4967002;28;20114;-80
2023/01/22 05:26:35;;;;;;;24.08;15.23;;;0.60;60.40;;;;;;4961416;28;20046;-81
2023/01/22 05:29:05;;;;;;;21.83;15.02;;;0.60;60.40;;;;;;4970502;28;20651;-82
2023/01/22 05:31:54;;;;;;;22.70;15.38;;;0.60;60.40;;;;;;4967901;28;20031;-81
2023/01/22 05:34:27;;;;;;;22.67;14.68;;;0.60;60.30;;;;;;4964779;28;20165;-80
2023/01/22 05:36:54;;;;;;;21.40;14.35;;;0.60;60.40;;;;;;4970153;28;20604;-80
2023/01/22 05:39:21;;;;;;;21.50;14.85;;;0.60;60.30;;;;;;4957179;28;20047;-82
2023/01/22 05:41:47;;;;;;;20.67;15.13;;;0.60;60.30;;;;;;4961993;28;20039;-82
2023/01/22 05:44:14;;;;;;;21.10;15.02;;;0.60;60.30;;;;;;4969072;28;20513;-80
2023/01/22 05:46:44;;;;;;;20.10;14.65;;;0.60;60.30;;;;;;4961986;28;20082;-83
2023/01/22 05:49:18;;;;;;;22.27;14.52;;;0.60;60.30;;;;;;4961360;28;20391;-83
2023/01/22 05:51:44;;;;;;;20.52;14.35;;;0.60;60.30;;;;;;4960264;28;20031;-83
2023/01/22 05:54:11;;;;;;;21.45;15.15;;;0.60;60.30;;;;;;4962048;28;20035;-81
2023/01/22 05:56:39;;;;;;;20.88;15.25;;;0.60;60.30;;;;;;4958703;28;20050;-80
2023/01/22 05:59:06;;;;;;;23.55;15.65;;;0.60;60.30;;;;;;4964941;28;20868;-81
2023/01/22 06:01:33;;;;;;;18.33;13.77;;;0.60;60.30;;;;;;4965037;28;20038;-82
2023/01/22 06:03:59;;;;;;;22.88;15.38;;;0.60;60.30;;;;;;4953551;28;20414;-81
2023/01/22 06:06:25;;;;;;;21.95;14.73;;;0.60;60.40;;;;;;4962373;28;20513;-81
2023/01/22 06:08:52;;;;;;;21.55;15.48;;;0.70;60.50;;;;;;4964436;28;20097;-81
2023/01/22 06:11:20;;;;;;;25.38;15.57;;;0.60;60.30;;;;;;4963543;28;20114;-80
2023/01/22 06:13:46;;;;;;;23.67;16.10;;;0.70;60.50;;;;;;4955286;28;20038;-82
2023/01/22 06:16:20;;;;;;;21.88;15.98;;;0.70;60.50;;;;;;4977906;28;20027;-83
2023/01/22 06:19:07;;;;;;;23.73;16.17;;;0.70;60.50;;;;;;4956920;28;20514;-82
2023/01/22 06:21:43;;;;;;;20.45;14.55;;;0.70;60.50;;;;;;4960711;28;20038;-82
2023/01/22 06:24:10;;;;;;;19.55;14.85;;;0.70;60.50;;;;;;4964801;28;20062;-82
2023/01/22 06:26:36;;;;;;;20.05;14.57;;;0.70;60.40;;;;;;4956274;28;20046;-81
2023/01/22 06:29:05;;;;;;;19.00;14.60;;;0.80;60.60;;;;;;4964745;28;20573;-81
2023/01/22 06:31:31;;;;;;;20.02;13.95;;;0.80;60.60;;;;;;4957224;28;20039;-79
2023/01/22 06:33:57;;;;;;;20.20;15.60;;;0.80;60.60;;;;;;4951969;28;20491;-88
2023/01/22 06:36:23;;;;;;;20.70;15.77;;;0.80;60.60;;;;;;4951695;28;20043;-85
2023/01/22 06:38:49;;;;;;;20.92;14.38;;;0.80;60.50;;;;;;4941714;28;20055;-87
2023/01/22 06:41:20;;;;;;;22.10;16.17;;;0.80;60.50;;;;;;4958753;28;20380;-83
2023/01/22 06:43:53;;;;;;;19.63;14.95;;;0.80;60.50;;;;;;4945846;28;20502;-80
2023/01/22 06:46:19;;;;;;;20.42;14.85;;;0.80;60.50;;;;;;4951842;28;20039;-83
2023/01/22 06:49:11;;;;;;;20.48;15.77;;;0.90;60.70;;;;;;4956818;28;20403;-84
2023/01/22 06:51:39;;;;;;;20.00;14.75;;;0.90;60.60;;;;;;4945228;28;20199;-86
2023/01/22 06:54:05;;;;;;;19.92;13.93;;;0.90;60.60;;;;;;4975034;28;20043;-88
2023/01/22 06:56:31;;;;;;;19.08;14.00;;;0.90;60.60;;;;;;4949803;28;20039;-92
2023/01/22 06:58:59;;;;;;;20.00;14.95;;;0.90;60.50;;;;;;4969299;28;20047;-90
2023/01/22 07:01:25;;;;;;;19.63;14.52;;;0.90;60.50;;;;;;4957283;28;20035;-82
2023/01/22 07:03:51;;;;;;;23.10;16.27;;;0.90;60.50;;;;;;4956850;28;20432;-85
2023/01/22 07:06:17;;;;;;;20.73;14.27;;;0.90;60.60;;;;;;4946759;28;20107;-85
2023/01/22 07:08:44;;;;;;;21.65;14.93;;;0.90;60.60;;;;;;4944535;28;20616;-80
2023/01/22 07:11:10;;;;;;;22.88;15.68;;;0.90;60.50;;;;;;4943684;28;20058;-80
2023/01/22 07:13:36;;;;;;;28.73;17.38;;;0.90;60.70;;;;;;4945577;28;20030;-78
2023/01/22 07:16:03;;;;;;;29.20;19.42;;;1.10;61.30;;;;;;4945383;28;20043;-77
2023/01/22 07:18:29;;;;;;;26.80;19.27;;;1.20;61.60;;;;;;4947404;28;20054;-76
2023/01/22 07:21:03;;;;;;;27.08;19.92;;;1.40;62.50;;;;;;4959097;28;20131;-78
2023/01/22 07:23:30;;;;;;;29.17;19.42;;;1.60;62.10;;;;;;4960811;28;20031;-82
2023/01/22 07:25:56;;;;;;;36.72;20.77;;;1.80;62.80;;;;;;4946540;28;20061;-87
2023/01/22 07:28:23;;;;;;;31.15;20.58;;;1.90;62.30;;;;;;4945297;28;20027;-85
2023/01/22 07:30:49;;;;;;;27.33;19.67;;;2.10;62.50;;;;;;4944976;28;20058;-79
2023/01/22 07:33:15;;;;;;;26.95;19.00;;;2.30;62.70;;;;;;4946214;28;20038;-80
2023/01/22 07:35:41;;;;;;;25.33;18.98;;;2.40;62.80;;;;;;4943114;28;20039;-80
2023/01/22 07:38:07;;;;;;;25.90;18.92;;;2.60;63.10;;;;;;4945135;28;20518;-81
2023/01/22 07:40:34;;;;;;;23.48;18.33;;;2.70;63.20;;;;;;4944133;28;20042;-77
2023/01/22 07:43:05;;;;;;;22.38;17.15;;;2.80;63.30;;;;;;4933640;28;20439;-76
2023/01/22 07:45:33;;;;;;;26.63;17.50;;;3.00;63.60;;;;;;4941441;28;20102;-86
2023/01/22 07:47:59;;;;;;;23.35;16.58;;;3.10;63.60;;;;;;4942499;28;20050;-85
2023/01/22 07:50:28;;;;;;;23.98;15.23;;;3.20;63.70;;;;;;4958013;28;20039;-83
2023/01/22 07:52:54;;;;;;;21.65;15.20;;;3.40;64.10;;;;;;4943134;28;20094;-79
2023/01/22 07:55:20;;;;;;;21.15;15.35;;;3.40;64.00;;;;;;4935265;28;20028;-84
2023/01/22 07:57:46;;;;;;;19.40;14.32;;;3.50;64.10;;;;;;4933242;28;20039;-77
2023/01/22 08:00:14;;;;;;;20.40;14.85;;;3.70;64.30;;;;;;4941278;28;20629;-76
2023/01/22 08:02:41;;;;;;;21.88;15.27;;;3.80;64.50;;;;;;4936722;28;20147;-77
2023/01/22 08:05:09;;;;;;;18.52;13.25;;;3.80;64.40;;;;;;4935751;28;20113;-77
2023/01/22 08:07:35;;;;;;;20.30;15.05;;;4.00;64.80;;;;;;4935768;28;20118;-76
2023/01/22 08:10:01;;;;;;;20.73;14.57;;;4.10;65.10;;;;;;4932895;28;20130;-75
2023/01/22 08:12:27;;;;;;;17.60;14.00;;;4.30;65.30;;;;;;4938144;28;20067;-76
2023/01/22 08:14:53;;;;;;;19.95;14.15;;;4.60;66.10;;;;;;4939822;28;20555;-77
2023/01/22 08:17:19;;;;;;;17.77;12.48;;;4.90;65.60;;;;;;4924779;28;20030;-75
2023/01/22 08:19:45;;;;;;;15.25;12.15;;;5.10;65.40;;;;;;4944497;28;20487;-75
2023/01/22 08:22:11;;;;;;;14.52;11.43;;;5.40;65.50;;;;;;4948383;28;20118;-75
2023/01/22 08:24:37;;;;;;;14.63;10.98;;;5.60;65.30;;;;;;4942714;28;20122;-76
2023/01/22 08:27:03;;;;;;;14.18;10.38;;;5.90;65.40;;;;;;4947567;28;20594;-75
2023/01/22 08:29:29;;;;;;;13.50;11.00;;;6.00;65.10;;;;;;4947322;28;20050;-76
2023/01/22 08:31:55;;;;;;;14.30;11.48;;;6.20;65.10;;;;;;4949319;28;20507;-77
2023/01/22 08:34:21;;;;;;;12.52;9.40;;;6.40;65.10;;;;;;4950704;28;20031;-78
2023/01/22 08:36:47;;;;;;;12.57;10.13;;;6.60;65.10;;;;;;4952302;28;20041;-77
2023/01/22 08:39:13;;;;;;;14.43;11.90;;;6.70;65.00;;;;;;4955734;28;20051;-77
2023/01/22 08:41:40;;;;;;;12.18;9.57;;;6.80;64.90;;;;;;4963678;28;20023;-77
2023/01/22 08:44:06;;;;;;;11.85;9.98;;;6.90;64.80;;;;;;4987057;28;20035;-77
2023/01/22 08:46:34;;;;;;;12.43;9.63;;;7.10;64.90;;;;;;4953670;28;20055;-77
2023/01/22 08:49:02;;;;;;;11.98;9.45;;;7.10;64.70;;;;;;4978048;28;20056;-76
2023/01/22 08:51:28;;;;;;;11.25;9.57;;;7.30;64.80;;;;;;4990561;28;20396;-77
2023/01/22 08:53:54;;;;;;;12.73;10.27;;;7.40;64.80;;;;;;4950436;28;20039;-79
2023/01/22 08:56:20;;;;;;;10.90;8.75;;;7.40;64.60;;;;;;4960253;28;20458;-77
2023/01/22 08:58:50;;;;;;;10.18;9.18;;;7.60;64.70;;;;;;4968321;28;20131;-78
2023/01/22 09:01:18;;;;;;;12.00;9.63;;;7.70;64.60;;;;;;4957851;28;20509;-79
2023/01/22 09:03:44;;;;;;;10.25;8.77;;;7.80;64.60;;;;;;4960695;28;20039;-80
2023/01/22 09:06:10;;;;;;;12.57;9.50;;;7.90;64.50;;;;;;4957355;28;20041;-80
2023/01/22 09:08:36;;;;;;;11.20;8.57;;;8.00;64.40;;;;;;4961513;28;20038;-79
2023/01/22 09:11:03;;;;;;;10.27;8.25;;;8.10;64.30;;;;;;4949320;28;20537;-81
2023/01/22 09:13:29;;;;;;;11.55;9.07;;;8.20;64.20;;;;;;4959627;28;20574;-80
2023/01/22 09:15:58;;;;;;;11.48;9.27;;;8.30;64.10;;;;;;4954060;28;20035;-80
2023/01/22 09:18:24;;;;;;;10.65;8.27;;;8.50;64.10;;;;;;4965099;28;20043;-80
2023/01/22 09:20:50;;;;;;;10.60;8.85;;;8.60;64.00;;;;;;4948115;28;20457;-81
2023/01/22 09:23:16;;;;;;;10.07;8.23;;;8.70;63.90;;;;;;4961185;28;20058;-80
2023/01/22 09:25:42;;;;;;;11.05;8.43;;;8.80;63.80;;;;;;4953519;28;20030;-81
2023/01/22 09:28:11;;;;;;;9.65;7.97;;;8.90;63.70;;;;;;4954054;28;20038;-77
2023/01/22 09:30:39;;;;;;;10.75;8.27;;;9.00;63.60;;;;;;4948666;28;20199;-77
2023/01/22 09:33:05;;;;;;;12.20;9.27;;;9.10;63.50;;;;;;4947371;28;20094;-79
2023/01/22 09:35:31;;;;;;;10.88;9.65;;;9.20;63.30;;;;;;4951910;28;20584;-80
2023/01/22 09:37:57;;;;;;;14.63;10.98;;;9.10;62.80;;;;;;4955552;28;20031;-80
2023/01/22 09:40:28;;;;;;;10.85;9.30;;;9.00;62.50;;;;;;4945657;28;20047;-76
2023/01/22 09:43:19;;;;;;;12.00;9.93;;;8.80;62.20;;;;;;4951967;28;20034;-78
2023/01/22 09:45:47;;;;;;;13.15;10.05;;;8.70;62.10;;;;;;4947873;28;20178;-89
2023/01/22 09:48:17;;;;;;;14.25;11.00;;;8.50;62.10;;;;;;4958622;28;20596;-78
2023/01/22 09:50:44;;;;;;;11.55;10.15;;;8.30;62.00;;;;;;4946503;28;20031;-79
2023/01/22 09:53:17;;;;;;;12.98;9.38;;;8.10;61.90;;;;;;4948688;28;20138;-80
2023/01/22 09:55:46;;;;;;;13.40;10.48;;;7.90;61.70;;;;;;4946989;28;20115;-84
2023/01/22 09:58:20;;;;;;;13.60;10.95;;;7.80;61.80;;;;;;4964377;28;20083;-88
2023/01/22 10:01:00;;;;;;;12.23;10.52;;;7.70;61.70;;;;;;4961850;28;20027;-84
2023/01/22 10:03:37;;;;;;;13.27;10.60;;;7.50;61.40;;;;;;4947239;28;20391;-85
2023/01/22 10:06:19;;;;;;;13.95;11.45;;;7.40;61.40;;;;;;4943630;28;20051;-81
2023/01/22 10:09:09;;;;;;;13.25;10.07;;;7.40;61.50;;;;;;4946113;28;20039;-81
2023/01/22 10:11:36;;;;;;;13.43;10.57;;;7.30;61.30;;;;;;4939443;28;20038;-84
2023/01/22 10:14:07;;;;;;;14.05;11.05;;;7.30;61.40;;;;;;4946246;28;20366;-83
2023/01/22 10:16:33;;;;;;;16.15;11.07;;;7.20;61.20;;;;;;4958447;28;20602;-83
2023/01/22 10:19:20;;;;;;;17.30;11.93;;;7.20;61.10;;;;;;4944677;28;20058;-77
2023/01/22 10:21:50;;;;;;;12.50;11.07;;;7.20;60.90;;;;;;4946166;28;20119;-85
2023/01/22 10:24:16;;;;;;;21.77;11.45;;;7.20;61.00;;;;;;4958852;28;20040;-83
2023/01/22 10:26:53;;;;;;;13.93;10.82;;;7.20;60.90;;;;;;4949877;28;20090;-84
2023/01/22 10:29:31;;;;;;;13.32;11.65;;;7.20;60.80;;;;;;4949407;28;20035;-85
2023/01/22 10:32:29;;;;;;;12.88;10.57;;;7.20;60.70;;;;;;4935051;28;20739;-85
2023/01/22 10:35:15;;;;;;;17.23;10.95;;;7.30;60.80;;;;;;4946037;28;20047;-84
2023/01/22 10:37:55;;;;;;;17.70;11.57;;;7.20;60.60;;;;;;4960159;28;20631;-79
2023/01/22 10:40:23;;;;;;;14.30;10.95;;;7.20;60.60;;;;;;4945448;28;20039;-78
2023/01/22 10:43:05;;;;;;;17.33;11.35;;;7.20;60.60;;;;;;4956559;28;20150;-78
2023/01/22 10:45:31;;;;;;;13.95;11.45;;;7.20;60.50;;;;;;4951724;28;20458;-78
2023/01/22 10:48:24;;;;;;;13.40;10.63;;;7.10;60.40;;;;;;4943965;28;20422;-78
2023/01/22 10:51:14;;;;;;;12.37;10.97;;;7.10;60.30;;;;;;4946044;28;20186;-79
2023/01/22 10:53:50;;;;;;;13.95;12.20;;;7.10;60.40;;;;;;4950749;28;20119;-82
2023/01/22 10:56:30;;;;;;;12.60;11.00;;;7.10;60.50;;;;;;4935305;28;20035;-85
2023/01/22 10:58:57;;;;;;;11.93;10.60;;;7.00;60.20;;;;;;4940085;28;20407;-79
2023/01/22 11:01:34;;;;;;;14.25;10.68;;;7.10;60.40;;;;;;4946578;28;20040;-79
2023/01/22 11:04:19;;;;;;;13.48;10.90;;;7.10;60.30;;;;;;4948941;28;20035;-80
2023/01/22 11:06:50;;;;;;;12.80;10.68;;;7.10;60.30;;;;;;4940268;28;20062;-80
2023/01/22 11:09:24;;;;;;;12.00;9.48;;;7.10;60.20;;;;;;4946982;28;20035;-80
2023/01/22 11:12:02;;;;;;;11.27;9.48;;;7.20;60.30;;;;;;4944175;28;20035;-80
2023/01/22 11:14:32;;;;;;;12.48;10.93;;;7.20;60.20;;;;;;4946170;28;20043;-78
2023/01/22 11:17:12;;;;;;;12.02;10.73;;;7.20;60.20;;;;;;4945166;28;20034;-80
2023/01/22 11:19:44;;;;;;;11.68;10.45;;;7.20;60.10;;;;;;4937882;28;20051;-80
2023/01/22 11:22:33;;;;;;;13.82;10.65;;;7.20;60.10;;;;;;4933576;28;20024;-79
2023/01/22 11:24:59;;;;;;;11.65;10.43;;;7.30;60.10;;;;;;4944821;28;20082;-80
2023/01/22 11:27:34;;;;;;;14.70;10.90;;;7.30;60.10;;;;;;4951600;28;20035;-79
2023/01/22 11:30:39;;;;;;;11.23;10.13;;;7.30;59.90;;;;;;4945733;28;20027;-79
2023/01/22 11:33:27;;;;;;;14.02;11.27;;;7.40;60.00;;;;;;4925092;28;20105;-80
2023/01/22 11:36:00;;;;;;;14.13;10.30;;;7.40;60.00;;;;;;4945079;28;20105;-78
2023/01/22 11:38:35;;;;;;;;;;;7.40;59.90;;;;;;4930665;28;20074;-81
2023/01/22 11:41:13;;;;;;;14.45;10.40;;;7.40;59.90;;;;;;4931334;28;20051;-87
2023/01/22 11:43:57;;;;;;;12.00;9.65;;;7.40;59.90;;;;;;4946073;28;20118;-81
2023/01/22 11:46:34;;;;;;;12.55;9.30;;;7.50;60.10;;;;;;4943860;28;20596;-84
2023/01/22 11:49:06;;;;;;;14.02;9.88;;;7.50;60.20;;;;;;4938796;28;20055;-84
2023/01/22 11:51:53;;;;;;;12.57;9.27;;;7.70;60.60;;;;;;4948760;28;20106;-83
2023/01/22 11:54:38;;;;;;;12.48;9.45;;;7.80;60.80;;;;;;4939341;28;20040;-83
2023/01/22 11:57:20;;;;;;;10.52;9.27;;;8.00;60.90;;;;;;4935261;28;20040;-79
2023/01/22 12:00:29;;;;;;;11.70;9.38;;;8.10;61.00;;;;;;4939576;28;20042;-79
2023/01/22 12:03:10;;;;;;;13.15;9.98;;;8.20;60.90;;;;;;4934686;28;20114;-81
2023/01/22 12:05:42;;;;;;;11.98;10.30;;;8.40;61.00;;;;;;4948289;28;20086;-88
2023/01/22 12:08:15;;;;;;;13.82;10.00;;;8.40;60.80;;;;;;4951600;28;20031;-85
2023/01/22 12:11:07;;;;;;;15.13;11.32;;;8.50;60.80;;;;;;4941218;28;20126;-85
2023/01/22 12:13:52;;;;;;;13.43;11.15;;;8.50;60.70;;;;;;4941998;28;20035;-87
2023/01/22 12:16:26;;;;;;;14.10;11.05;;;8.50;60.60;;;;;;4939201;28;20126;-86
2023/01/22 12:19:06;;;;;;;12.68;11.38;;;8.60;60.70;;;;;;4938423;28;20488;-87
2023/01/22 12:22:07;;;;;;;13.82;10.63;;;8.60;60.70;;;;;;4943504;28;20082;-87
2023/01/22 12:24:49;;;;;;;14.15;11.25;;;8.70;60.70;;;;;;4934663;28;20043;-87
2023/01/22 12:27:27;;;;;;;14.88;12.48;;;8.80;60.70;;;;;;4937932;28;20031;-85
2023/01/22 12:30:06;;;;;;;14.05;12.25;;;8.80;60.70;;;;;;4959629;28;20709;-88
2023/01/22 12:32:34;;;;;;;14.02;11.90;;;8.90;60.80;;;;;;4954850;28;20047;-89
2023/01/22 12:35:04;;;;;;;16.52;12.85;;;8.90;60.70;;;;;;4944192;28;20038;-87
2023/01/22 12:37:39;;;;;;;14.52;12.27;;;9.00;60.70;;;;;;4940541;28;20035;-88
2023/01/22 12:40:51;;;;;;;14.55;11.77;;;9.00;60.60;;;;;;4946785;28;20039;-87
2023/01/22 12:43:24;;;;;;;14.10;11.88;;;9.10;60.70;;;;;;4941234;28;20074;-86
2023/01/22 12:45:53;;;;;;;;;;;9.20;60.80;;;;;;4947513;28;20053;-82
2023/01/22 12:48:40;;;;;;;15.32;12.98;;;9.20;60.70;;;;;;4942245;28;19926;-84
2023/01/22 12:51:26;;;;;;;18.60;12.43;;;9.30;60.70;;;;;;4943486;28;20053;-85
2023/01/22 12:53:52;;;;;;;15.05;12.40;;;9.30;60.50;;;;;;4944922;28;20032;-85
2023/01/22 12:56:30;;;;;;;18.10;12.98;;;9.40;60.70;;;;;;4941745;28;20380;-87
2023/01/22 12:58:57;;;;;;;16.10;12.75;;;9.40;60.60;;;;;;4937744;28;20122;-84
2023/01/22 13:01:31;;;;;;;14.93;12.68;;;9.40;60.50;;;;;;4945022;28;20039;-81
2023/01/22 13:04:00;;;;;;;16.92;12.90;;;9.50;60.60;;;;;;4942454;28;20035;-87